createdAt,value
2022-11-06T00:00:45.258Z,47.38
2022-11-06T00:03:12.144Z,47.46
2022-11-06T00:06:01.312Z,47.12
2022-11-06T00:08:33.342Z,47.09
2022-11-06T00:11:00.405Z,46.94
2022-11-06T00:13:27.839Z,47.08
2022-11-06T00:15:54.579Z,46.99
2022-11-06T00:18:21.134Z,47.05
2022-11-06T00:20:47.889Z,46.68
2022-11-06T00:23:14.391Z,46.61
2022-11-06T00:25:41.970Z,46.73
2022-11-06T00:28:08.813Z,46.54
2022-11-06T00:30:35.375Z,46.46
2022-11-06T00:33:01.914Z,46.64
2022-11-06T00:35:28.988Z,46.39
2022-11-06T00:37:56.204Z,46.61
2022-11-06T00:40:23.134Z,46.16
2022-11-06T00:42:54.322Z,46.44
2022-11-06T00:45:21.011Z,46.24
2022-11-06T00:47:47.503Z,46.49
2022-11-06T00:50:14.215Z,46.10
2022-11-06T00:52:40.763Z,46.17
2022-11-06T00:57:25.087Z,46.21
2022-11-06T00:59:51.604Z,45.95
2022-11-06T01:02:19.565Z,46.13
2022-11-06T01:04:47.119Z,46.22
2022-11-06T01:07:13.667Z,46.19
2022-11-06T01:09:40.199Z,45.97
2022-11-06T01:12:13.208Z,46.19
2022-11-06T01:14:41.740Z,45.95
2022-11-06T01:17:08.345Z,45.86
2022-11-06T01:19:34.959Z,45.70
2022-11-06T01:22:01.569Z,46.07
2022-11-06T01:24:29.331Z,46.05
2022-11-06T01:27:24.918Z,45.67
2022-11-06T01:29:43.340Z,45.82
2022-11-06T01:32:09.963Z,45.74
2022-11-06T01:34:36.648Z,45.75
2022-11-06T01:37:03.477Z,45.68
2022-11-06T01:39:30.166Z,45.77
2022-11-06T01:41:56.662Z,45.90
2022-11-06T01:44:35.680Z,45.95
2022-11-06T01:47:06.610Z,45.76
2022-11-06T01:49:37.898Z,45.89
2022-11-06T01:52:10.071Z,45.50
2022-11-06T01:54:38.382Z,45.53
2022-11-06T01:57:05.681Z,45.81
2022-11-06T01:59:35.875Z,45.52
2022-11-06T02:02:02.762Z,45.82
2022-11-06T02:04:34.424Z,45.78
2022-11-06T02:07:01.206Z,45.70
2022-11-06T02:09:30.403Z,45.42
2022-11-06T02:12:22.214Z,45.73
2022-11-06T02:15:08.648Z,45.54
2022-11-06T02:17:52.118Z,45.53
2022-11-06T02:20:44.891Z,45.46
2022-11-06T02:23:44.167Z,45.46
2022-11-06T02:26:34.158Z,45.60
2022-11-06T02:29:07.820Z,45.41
2022-11-06T02:31:36.731Z,45.67
2022-11-06T02:34:10.067Z,45.48
2022-11-06T02:36:56.450Z,45.38
2022-11-06T02:39:27.198Z,45.61
2022-11-06T02:41:57.752Z,45.77
2022-11-06T02:44:28.755Z,45.60
2022-11-06T02:47:06.770Z,45.48
2022-11-06T02:50:01.502Z,45.52
2022-11-06T02:52:38.100Z,45.67
2022-11-06T02:55:11.265Z,45.44
2022-11-06T02:57:42.184Z,45.68
2022-11-06T03:00:15.771Z,45.78
2022-11-06T03:02:53.638Z,45.49
2022-11-06T03:05:24.841Z,45.77
2022-11-06T03:07:59.348Z,45.47
2022-11-06T03:10:32.529Z,45.75
2022-11-06T03:13:09.689Z,45.35
2022-11-06T03:15:45.198Z,45.56
2022-11-06T03:18:43.416Z,45.42
2022-11-06T03:21:25.894Z,45.73
2022-11-06T03:23:59.213Z,45.65
2022-11-06T03:26:38.486Z,45.73
2022-11-06T03:29:25.822Z,45.40
2022-11-06T03:32:01.606Z,45.68
2022-11-06T03:34:33.093Z,45.79
2022-11-06T03:37:07.647Z,45.57
2022-11-06T03:39:42.560Z,45.60
2022-11-06T03:42:16.830Z,45.59
2022-11-06T03:44:49.521Z,45.31
2022-11-06T03:47:24.331Z,45.23
2022-11-06T03:49:57.627Z,45.59
2022-11-06T03:52:30.690Z,45.25
2022-11-06T03:55:07.807Z,45.25
2022-11-06T03:57:50.587Z,45.32
2022-11-06T04:00:20.393Z,45.31
2022-11-06T04:02:52.451Z,45.44
2022-11-06T04:05:22.753Z,45.24
2022-11-06T04:08:13.016Z,45.44
2022-11-06T04:11:03.597Z,45.44
2022-11-06T04:13:52.555Z,45.21
2022-11-06T04:16:19.269Z,45.48
2022-11-06T04:18:45.792Z,45.28
2022-11-06T04:21:34.353Z,45.64
2022-11-06T04:24:34.550Z,45.15
2022-11-06T04:27:13.467Z,45.13
2022-11-06T04:30:08.026Z,45.49
2022-11-06T04:32:40.421Z,45.37
2022-11-06T04:35:15.796Z,45.30
2022-11-06T04:38:30.474Z,45.41
2022-11-06T04:41:06.151Z,45.52
2022-11-06T04:43:50.632Z,45.21
2022-11-06T04:46:23.536Z,45.11
2022-11-06T04:48:50.934Z,45.44
2022-11-06T04:51:22.682Z,45.45
2022-11-06T04:53:52.094Z,44.98
2022-11-06T04:56:35.268Z,45.22
2022-11-06T04:59:07.210Z,45.55
2022-11-06T05:01:34.339Z,45.11
2022-11-06T05:04:01.011Z,45.17
2022-11-06T05:06:30.150Z,45.22
2022-11-06T05:08:58.931Z,45.38
2022-11-06T05:11:25.460Z,45.32
2022-11-06T05:13:52.041Z,45.38
2022-11-06T05:16:18.755Z,45.17
2022-11-06T05:18:45.253Z,45.19
2022-11-06T05:21:30.923Z,44.96
2022-11-06T05:23:57.500Z,44.89
2022-11-06T05:26:24.025Z,45.05
2022-11-06T05:28:50.613Z,45.28
2022-11-06T05:31:17.354Z,45.22
2022-11-06T05:33:43.878Z,45.04
2022-11-06T05:36:10.635Z,45.21
2022-11-06T05:38:37.166Z,45.46
2022-11-06T05:41:03.763Z,45.13
2022-11-06T05:43:30.939Z,44.99
2022-11-06T05:45:57.575Z,45.29
2022-11-06T05:48:24.219Z,45.28
2022-11-06T05:50:50.787Z,45.24
2022-11-06T05:53:17.352Z,45.12
2022-11-06T05:55:49.742Z,45.29
2022-11-06T05:58:16.610Z,45.34
2022-11-06T06:00:43.249Z,44.94
2022-11-06T06:03:10.548Z,45.07
2022-11-06T06:05:37.278Z,44.96
2022-11-06T06:08:04.906Z,45.16
2022-11-06T06:10:31.398Z,45.07
2022-11-06T06:12:57.979Z,44.94
2022-11-06T06:15:24.570Z,45.23
2022-11-06T06:17:51.115Z,44.91
2022-11-06T06:20:17.782Z,45.31
2022-11-06T06:22:53.230Z,44.92
2022-11-06T06:25:22.899Z,44.92
2022-11-06T06:27:50.125Z,45.30
2022-11-06T06:30:16.927Z,44.84
2022-11-06T06:32:43.986Z,45.09
2022-11-06T06:35:10.849Z,45.13
2022-11-06T06:37:37.833Z,44.94
2022-11-06T06:40:05.531Z,45.00
2022-11-06T06:42:32.231Z,45.11
2022-11-06T06:44:58.728Z,45.05
2022-11-06T06:47:25.312Z,44.89
2022-11-06T06:49:51.802Z,45.06
2022-11-06T06:52:18.350Z,45.07
2022-11-06T06:54:45.291Z,45.10
2022-11-06T06:57:11.973Z,44.96
2022-11-06T06:59:38.492Z,45.04
2022-11-06T07:02:05.203Z,44.98
2022-11-06T07:04:31.775Z,44.87
2022-11-06T07:06:58.336Z,44.96
2022-11-06T07:09:25.008Z,44.89
2022-11-06T07:11:51.577Z,44.98
2022-11-06T07:14:18.163Z,44.82
2022-11-06T07:16:47.381Z,45.14
2022-11-06T07:19:17.647Z,44.86
2022-11-06T07:21:44.139Z,44.80
2022-11-06T07:26:36.139Z,44.69
2022-11-06T07:29:02.763Z,44.50
2022-11-06T07:31:31.267Z,44.59
2022-11-06T07:33:57.945Z,44.42
2022-11-06T07:36:24.588Z,44.39
2022-11-06T07:38:51.205Z,44.60
2022-11-06T07:41:17.709Z,44.53
2022-11-06T07:43:44.817Z,44.34
2022-11-06T07:46:12.786Z,44.27
2022-11-06T07:48:39.832Z,44.16
2022-11-06T07:51:09.399Z,44.26
2022-11-06T07:53:36.430Z,44.24
2022-11-06T07:56:03.069Z,44.44
2022-11-06T07:58:29.878Z,44.35
2022-11-06T08:00:58.538Z,44.56
2022-11-06T08:03:26.769Z,44.26
2022-11-06T08:05:53.342Z,44.53
2022-11-06T08:08:19.952Z,44.66
2022-11-06T08:10:47.668Z,44.39
2022-11-06T08:13:16.864Z,44.62
2022-11-06T08:15:43.547Z,44.73
2022-11-06T08:18:11.496Z,44.66
2022-11-06T08:20:39.333Z,44.77
2022-11-06T08:23:08.803Z,44.50
2022-11-06T08:25:35.439Z,44.66
2022-11-06T08:28:03.052Z,44.57
2022-11-06T08:30:30.819Z,44.83
2022-11-06T08:33:02.784Z,44.84
2022-11-06T08:35:29.765Z,45.08
2022-11-06T08:37:56.691Z,45.40
2022-11-06T08:40:29.419Z,45.42
2022-11-06T08:43:05.628Z,45.34
2022-11-06T08:45:32.980Z,45.08
2022-11-06T08:48:04.481Z,45.20
2022-11-06T08:50:32.080Z,45.39
2022-11-06T08:55:21.578Z,45.20
2022-11-06T08:57:48.155Z,45.02
2022-11-06T09:00:15.613Z,45.04
2022-11-06T09:02:42.191Z,44.90
2022-11-06T09:05:09.126Z,44.96
2022-11-06T09:07:35.767Z,45.31
2022-11-06T09:10:02.467Z,45.20
2022-11-06T09:12:29.040Z,45.26
2022-11-06T09:14:55.632Z,45.32
2022-11-06T09:17:24.318Z,45.21
2022-11-06T09:19:51.697Z,44.97
2022-11-06T09:22:18.979Z,44.92
2022-11-06T09:25:02.735Z,45.06
2022-11-06T09:27:31.075Z,44.63
2022-11-06T09:29:58.145Z,44.74
2022-11-06T09:32:26.098Z,45.21
2022-11-06T09:34:52.654Z,45.04
2022-11-06T09:37:19.260Z,45.21
2022-11-06T09:39:45.743Z,45.10
2022-11-06T09:42:46.071Z,45.36
2022-11-06T09:45:17.813Z,45.14
2022-11-06T09:47:50.979Z,45.46
2022-11-06T09:50:26.702Z,45.46
2022-11-06T09:53:05.608Z,45.57
2022-11-06T09:55:41.347Z,45.86
2022-11-06T09:58:16.810Z,45.82
2022-11-06T10:00:43.825Z,46.48
2022-11-06T10:03:23.867Z,46.63
2022-11-06T10:05:53.158Z,46.69
2022-11-06T10:08:26.939Z,46.48
2022-11-06T10:11:05.733Z,46.49
2022-11-06T10:14:00.121Z,46.63
2022-11-06T10:16:46.834Z,46.63
2022-11-06T10:19:25.530Z,46.96
2022-11-06T10:22:07.244Z,46.89
2022-11-06T10:24:57.502Z,47.31
2022-11-06T10:27:32.214Z,47.70
2022-11-06T10:30:13.015Z,47.95
2022-11-06T10:32:52.920Z,48.04
2022-11-06T10:35:24.670Z,48.04
2022-11-06T10:37:58.319Z,48.13
2022-11-06T10:42:56.159Z,48.39
2022-11-06T10:45:24.694Z,48.80
2022-11-06T10:48:10.845Z,48.70
2022-11-06T10:51:04.578Z,48.96
2022-11-06T10:53:37.143Z,48.95
2022-11-06T10:56:28.623Z,48.74
2022-11-06T10:58:55.267Z,48.52
2022-11-06T11:01:23.149Z,48.64
2022-11-06T11:03:51.547Z,48.90
2022-11-06T11:06:18.595Z,49.08
2022-11-06T11:08:49.193Z,48.83
2022-11-06T11:11:15.824Z,49.16
2022-11-06T11:13:57.470Z,48.20
2022-11-06T11:16:28.248Z,47.48
2022-11-06T11:18:54.924Z,46.75
2022-11-06T11:21:27.659Z,46.27
2022-11-06T11:24:00.486Z,45.90
2022-11-06T11:26:29.904Z,45.56
2022-11-06T11:29:03.223Z,45.52
2022-11-06T11:31:33.070Z,45.54
2022-11-06T11:34:05.010Z,45.26
2022-11-06T11:36:57.737Z,45.07
2022-11-06T11:39:42.616Z,44.93
2022-11-06T11:42:27.689Z,45.03
2022-11-06T11:45:16.435Z,45.01
2022-11-06T11:47:48.828Z,45.07
2022-11-06T11:50:26.801Z,45.00
2022-11-06T11:53:14.059Z,45.12
2022-11-06T11:55:44.752Z,44.99
2022-11-06T11:58:23.986Z,45.07
2022-11-06T12:00:54.860Z,45.42
2022-11-06T12:05:44.937Z,45.40
2022-11-06T12:08:23.732Z,45.52
2022-11-06T12:10:50.578Z,45.27
2022-11-06T12:13:22.535Z,45.60
2022-11-06T12:16:13.715Z,45.88
2022-11-06T12:18:55.998Z,46.32
2022-11-06T12:21:33.246Z,46.40
2022-11-06T12:24:25.762Z,46.35
2022-11-06T12:26:57.945Z,46.59
2022-11-06T12:29:33.601Z,46.65
2022-11-06T12:32:02.980Z,46.94
2022-11-06T12:34:44.831Z,47.02
2022-11-06T12:37:24.203Z,47.26
2022-11-06T12:40:18.454Z,47.26
2022-11-06T12:43:20.773Z,47.36
2022-11-06T12:46:08.818Z,47.15
2022-11-06T12:48:35.634Z,47.15
2022-11-06T12:51:29.911Z,47.89
2022-11-06T12:54:24.918Z,48.13
2022-11-06T12:57:14.340Z,48.74
2022-11-06T13:00:04.631Z,49.03
2022-11-06T13:04:59.007Z,49.49
2022-11-06T13:07:47.159Z,49.93
2022-11-06T13:10:28.878Z,49.95
2022-11-06T13:13:30.925Z,49.91
2022-11-06T13:16:24.265Z,49.76
2022-11-06T13:19:00.843Z,49.71
2022-11-06T13:21:39.305Z,49.86
2022-11-06T13:24:25.207Z,49.59
2022-11-06T13:27:01.611Z,49.52
2022-11-06T13:29:30.222Z,49.55
2022-11-06T13:32:04.839Z,49.81
2022-11-06T13:34:38.037Z,49.55
2022-11-06T13:39:29.792Z,49.42
2022-11-06T13:41:58.004Z,49.25
2022-11-06T13:44:25.450Z,49.18
2022-11-06T13:46:54.765Z,48.74
2022-11-06T13:49:39.683Z,48.94
2022-11-06T13:52:35.501Z,49.29
2022-11-06T13:55:14.327Z,49.84
2022-11-06T13:58:00.049Z,49.86
2022-11-06T14:00:41.803Z,49.92
2022-11-06T14:03:48.179Z,50.33
2022-11-06T14:08:48.771Z,49.08
2022-11-06T14:11:28.351Z,48.10
2022-11-06T14:14:21.230Z,47.30
2022-11-06T14:17:09.437Z,46.27
2022-11-06T14:19:36.614Z,45.20
2022-11-06T14:22:08.853Z,44.31
2022-11-06T14:24:39.983Z,43.92
2022-11-06T14:27:23.221Z,43.67
2022-11-06T14:30:15.419Z,43.46
2022-11-06T14:32:48.072Z,43.45
2022-11-06T14:35:37.959Z,43.33
2022-11-06T14:38:28.970Z,43.76
2022-11-06T14:40:56.655Z,44.29
2022-11-06T14:43:31.662Z,44.78
2022-11-06T14:46:00.568Z,44.87
2022-11-06T14:48:39.474Z,45.34
2022-11-06T14:53:37.719Z,45.55
2022-11-06T14:56:08.134Z,45.21
2022-11-06T14:58:39.043Z,45.55
2022-11-06T15:01:08.731Z,45.43
2022-11-06T15:03:48.798Z,45.35
2022-11-06T15:06:16.178Z,45.65
2022-11-06T15:08:45.913Z,45.41
2022-11-06T15:13:26.743Z,45.37
2022-11-06T15:16:05.823Z,45.53
2022-11-06T15:18:36.251Z,45.52
2022-11-06T15:21:07.946Z,45.26
2022-11-06T15:24:01.292Z,45.95
2022-11-06T15:26:37.054Z,46.70
2022-11-06T15:29:19.509Z,47.06
2022-11-06T15:31:50.637Z,47.48
2022-11-06T15:34:26.210Z,47.84
2022-11-06T15:39:29.178Z,48.45
2022-11-06T15:41:56.674Z,48.78
2022-11-06T15:44:25.039Z,48.46
2022-11-06T15:46:59.123Z,48.75
2022-11-06T15:49:26.210Z,48.84
2022-11-06T15:52:02.303Z,49.02
2022-11-06T15:54:31.639Z,48.53
2022-11-06T15:57:00.646Z,48.40
2022-11-06T15:59:29.960Z,48.37
2022-11-06T16:01:56.584Z,48.29
2022-11-06T16:04:25.682Z,48.13
2022-11-06T16:06:54.387Z,48.21
2022-11-06T16:09:23.901Z,48.18
2022-11-06T16:11:52.027Z,48.27
2022-11-06T16:14:20.326Z,48.34
2022-11-06T16:16:55.749Z,48.18
2022-11-06T16:19:23.254Z,48.05
2022-11-06T16:21:58.058Z,48.38
2022-11-06T16:24:28.891Z,48.10
2022-11-06T16:26:55.998Z,48.01
2022-11-06T16:29:29.233Z,48.04
2022-11-06T16:32:08.453Z,48.42
2022-11-06T16:34:38.122Z,48.31
2022-11-06T16:37:21.480Z,48.14
2022-11-06T16:39:50.998Z,48.27
2022-11-06T16:42:27.723Z,48.40
2022-11-06T16:45:19.463Z,48.21
2022-11-06T16:48:11.010Z,48.40
2022-11-06T16:50:53.015Z,48.59
2022-11-06T16:53:21.967Z,49.24
2022-11-06T16:56:05.803Z,49.47
2022-11-06T16:58:48.559Z,49.38
2022-11-06T17:01:20.415Z,49.23
2022-11-06T17:03:54.529Z,49.27
2022-11-06T17:06:30.825Z,48.70
2022-11-06T17:09:26.375Z,48.64
2022-11-06T17:11:57.455Z,48.96
2022-11-06T17:14:24.837Z,49.41
2022-11-06T17:16:57.739Z,49.61
2022-11-06T17:19:25.930Z,49.29
2022-11-06T17:21:52.625Z,49.14
2022-11-06T17:24:37.073Z,49.17
2022-11-06T17:27:05.182Z,49.29
2022-11-06T17:29:34.515Z,49.59
2022-11-06T17:32:01.063Z,49.85
2022-11-06T17:34:27.584Z,49.66
2022-11-06T17:36:54.476Z,49.89
2022-11-06T17:39:22.476Z,50.30
2022-11-06T17:41:49.095Z,50.43
2022-11-06T17:44:16.894Z,50.23
2022-11-06T17:46:45.638Z,50.28
2022-11-06T17:49:17.460Z,50.50
2022-11-06T17:51:52.730Z,50.61
2022-11-06T17:54:25.340Z,50.60
2022-11-06T17:56:53.745Z,50.75
2022-11-06T17:59:20.972Z,50.79
2022-11-06T18:01:47.971Z,51.26
2022-11-06T18:04:14.721Z,51.16
2022-11-06T18:06:44.741Z,51.07
2022-11-06T18:09:11.436Z,51.23
2022-11-06T18:11:38.528Z,51.02
2022-11-06T18:14:05.070Z,51.06
2022-11-06T18:16:33.907Z,51.42
2022-11-06T18:19:01.549Z,51.57
2022-11-06T18:21:28.119Z,51.45
2022-11-06T18:23:54.750Z,51.50
2022-11-06T18:26:21.660Z,51.66
2022-11-06T18:28:49.595Z,51.54
2022-11-06T18:31:16.226Z,51.71
2022-11-06T18:33:43.130Z,51.65
2022-11-06T18:36:11.203Z,51.72
2022-11-06T18:38:38.023Z,51.80
2022-11-06T18:41:17.164Z,51.53
2022-11-06T18:43:44.442Z,51.84
2022-11-06T18:46:14.281Z,51.82
2022-11-06T18:48:41.285Z,51.44
2022-11-06T18:51:10.172Z,50.95
2022-11-06T18:53:38.687Z,50.73
2022-11-06T18:56:08.797Z,50.57
2022-11-06T18:58:35.548Z,50.27
2022-11-06T19:01:14.037Z,50.08
2022-11-06T19:03:41.575Z,50.00
2022-11-06T19:06:11.335Z,49.78
2022-11-06T19:08:38.136Z,49.36
2022-11-06T19:11:05.935Z,49.32
2022-11-06T19:13:32.928Z,49.09
2022-11-06T19:15:59.911Z,48.86
2022-11-06T19:18:30.363Z,48.67
2022-11-06T19:20:57.170Z,48.63
2022-11-06T19:23:24.371Z,48.69
2022-11-06T19:26:04.326Z,48.56
2022-11-06T19:28:37.890Z,48.19
2022-11-06T19:31:04.661Z,48.23
2022-11-06T19:33:31.253Z,48.09
2022-11-06T19:36:00.736Z,47.81
2022-11-06T19:38:28.291Z,47.90
2022-11-06T19:41:00.456Z,48.00
2022-11-06T19:43:35.721Z,47.68
2022-11-06T19:46:04.208Z,47.73
2022-11-06T19:48:32.181Z,47.58
2022-11-06T19:51:00.231Z,47.70
2022-11-06T19:53:27.715Z,47.67
2022-11-06T19:55:54.420Z,47.64
2022-11-06T19:58:23.666Z,47.68
2022-11-06T20:00:53.292Z,47.52
2022-11-06T20:03:19.938Z,47.80
2022-11-06T20:05:46.675Z,47.70
2022-11-06T20:08:13.631Z,47.46
2022-11-06T20:10:41.471Z,47.32
2022-11-06T20:13:08.655Z,47.17
2022-11-06T20:15:35.813Z,46.98
2022-11-06T20:18:02.427Z,47.18
2022-11-06T20:20:34.749Z,47.08
2022-11-06T20:23:02.860Z,47.07
2022-11-06T20:25:30.690Z,46.83
2022-11-06T20:27:57.328Z,46.68
2022-11-06T20:30:24.154Z,46.75
2022-11-06T20:32:50.907Z,46.48
2022-11-06T20:35:19.235Z,46.77
2022-11-06T20:37:45.866Z,46.66
2022-11-06T20:40:13.068Z,46.73
2022-11-06T20:42:39.814Z,46.79
2022-11-06T20:45:07.499Z,46.57
2022-11-06T20:47:34.131Z,46.50
2022-11-06T20:50:00.659Z,46.36
2022-11-06T20:52:27.271Z,46.53
2022-11-06T20:54:53.796Z,46.33
2022-11-06T20:57:20.378Z,46.43
2022-11-06T20:59:46.948Z,46.63
2022-11-06T21:02:13.797Z,46.61
2022-11-06T21:04:40.962Z,46.25
2022-11-06T21:07:10.020Z,46.69
2022-11-06T21:09:36.571Z,46.70
2022-11-06T21:12:03.436Z,46.74
2022-11-06T21:14:31.267Z,47.02
2022-11-06T21:16:58.306Z,47.21
2022-11-06T21:19:25.003Z,47.11
2022-11-06T21:21:51.739Z,47.02
2022-11-06T21:24:18.269Z,47.10
2022-11-06T21:26:44.863Z,46.97
2022-11-06T21:29:12.054Z,46.98
2022-11-06T21:31:42.705Z,46.92
2022-11-06T21:34:15.404Z,46.70
2022-11-06T21:36:41.930Z,46.59
2022-11-06T21:39:12.376Z,46.43
2022-11-06T21:41:39.374Z,46.42
2022-11-06T21:44:06.923Z,46.62
2022-11-06T21:46:34.179Z,46.36
2022-11-06T21:49:00.943Z,46.56
2022-11-06T21:51:30.281Z,46.24
2022-11-06T21:54:16.367Z,46.14
2022-11-06T21:56:44.347Z,46.04
2022-11-06T21:59:13.903Z,46.10
2022-11-06T22:01:41.034Z,45.83
2022-11-06T22:04:08.111Z,45.98
2022-11-06T22:06:34.791Z,45.98
2022-11-06T22:09:02.708Z,46.17
2022-11-06T22:11:32.535Z,45.66
2022-11-06T22:14:01.858Z,45.58
2022-11-06T22:16:32.584Z,45.48
2022-11-06T22:18:59.754Z,45.38
2022-11-06T22:21:28.516Z,45.46
2022-11-06T22:23:56.051Z,45.37
2022-11-06T22:26:24.803Z,45.35
2022-11-06T22:28:56.417Z,45.14
2022-11-06T22:31:24.111Z,45.14
2022-11-06T22:33:53.897Z,45.14
2022-11-06T22:36:21.819Z,45.32
2022-11-06T22:38:49.337Z,45.30
2022-11-06T22:41:21.395Z,45.13
2022-11-06T22:43:48.052Z,44.57
2022-11-06T22:46:18.193Z,44.23
2022-11-06T22:48:45.752Z,44.39
2022-11-06T22:51:15.368Z,44.13
2022-11-06T22:53:42.411Z,44.32
2022-11-06T22:56:09.550Z,44.33
2022-11-06T22:58:36.090Z,44.28
2022-11-06T23:01:02.684Z,44.21
2022-11-06T23:05:48.082Z,44.82
2022-11-06T23:08:15.350Z,44.69
2022-11-06T23:10:42.427Z,44.82
2022-11-06T23:13:10.220Z,44.69
2022-11-06T23:15:37.663Z,44.85
2022-11-06T23:18:04.867Z,44.79
2022-11-06T23:20:33.294Z,44.80
2022-11-06T23:23:00.769Z,44.69
2022-11-06T23:25:28.360Z,44.59
2022-11-06T23:27:55.004Z,44.77
2022-11-06T23:30:21.547Z,44.65
2022-11-06T23:32:48.100Z,44.87
2022-11-06T23:35:16.945Z,45.00
2022-11-06T23:37:43.963Z,44.95
2022-11-06T23:40:11.478Z,44.63
2022-11-06T23:42:38.331Z,44.89
2022-11-06T23:45:23.850Z,44.78
2022-11-06T23:47:50.959Z,45.11
2022-11-06T23:50:17.960Z,44.90
2022-11-06T23:52:45.210Z,45.12
2022-11-06T23:55:12.298Z,44.96
2022-11-06T23:57:38.992Z,45.45
